createdAt,value
2022-11-24T00:00:43.645Z,2.02
2022-11-24T00:03:10.180Z,2.02
2022-11-24T00:05:36.757Z,1.93
2022-11-24T00:08:03.171Z,1.79
2022-11-24T00:10:29.598Z,2.19
2022-11-24T00:12:55.988Z,2.15
2022-11-24T00:15:22.410Z,2.01
2022-11-24T00:17:48.837Z,2.08
2022-11-24T00:20:15.359Z,2.25
2022-11-24T00:22:41.784Z,2.63
2022-11-24T00:25:08.207Z,2.69
2022-11-24T00:27:34.631Z,2.63
2022-11-24T00:30:01.061Z,2.68
2022-11-24T00:32:27.474Z,2.43
2022-11-24T00:34:53.891Z,2.44
2022-11-24T00:37:20.326Z,2.05
2022-11-24T00:39:46.739Z,1.67
2022-11-24T00:42:13.155Z,1.54
2022-11-24T00:44:39.657Z,1.52
2022-11-24T00:47:06.198Z,1.45
2022-11-24T00:49:32.682Z,1.42
2022-11-24T00:51:59.079Z,1.83
2022-11-24T00:54:25.499Z,1.68
2022-11-24T00:56:51.915Z,1.44
2022-11-24T00:59:18.361Z,1.55
2022-11-24T01:01:44.880Z,1.76
2022-11-24T01:04:11.374Z,1.93
2022-11-24T01:06:37.780Z,2.10
2022-11-24T01:09:04.205Z,1.99
2022-11-24T01:11:30.636Z,1.82
2022-11-24T01:13:57.087Z,1.58
2022-11-24T01:16:23.573Z,1.61
2022-11-24T01:18:50.075Z,1.43
2022-11-24T01:21:16.488Z,1.39
2022-11-24T01:23:42.895Z,1.56
2022-11-24T01:26:09.315Z,1.35
2022-11-24T01:28:35.741Z,1.26
2022-11-24T01:31:02.220Z,1.24
2022-11-24T01:33:28.695Z,1.06
2022-11-24T01:35:55.108Z,1.14
2022-11-24T01:38:21.533Z,1.11
2022-11-24T01:40:47.985Z,0.82
2022-11-24T01:43:14.374Z,0.77
2022-11-24T01:45:40.990Z,0.76
2022-11-24T01:48:07.690Z,0.82
2022-11-24T01:50:34.270Z,0.85
2022-11-24T01:53:00.693Z,0.78
2022-11-24T01:55:27.100Z,0.85
2022-11-24T01:57:53.522Z,1.07
2022-11-24T02:00:19.930Z,0.96
2022-11-24T02:02:46.420Z,0.92
2022-11-24T02:05:12.885Z,0.72
2022-11-24T02:07:39.327Z,0.79
2022-11-24T02:10:05.780Z,0.84
2022-11-24T02:12:32.187Z,0.73
2022-11-24T02:14:58.633Z,0.86
2022-11-24T02:17:25.049Z,0.88
2022-11-24T02:19:51.460Z,1.06
2022-11-24T02:22:17.878Z,0.84
2022-11-24T02:24:44.302Z,0.76
2022-11-24T02:27:10.746Z,0.77
2022-11-24T02:29:37.170Z,0.76
2022-11-24T02:32:03.565Z,0.94
2022-11-24T02:34:29.972Z,0.84
2022-11-24T02:36:56.645Z,0.74
2022-11-24T02:39:23.103Z,0.68
2022-11-24T02:47:12.444Z,0.87
2022-11-24T02:49:38.852Z,0.81
2022-11-24T02:52:05.247Z,0.88
2022-11-24T02:54:31.934Z,0.93
2022-11-24T02:56:58.696Z,0.98
2022-11-24T02:59:25.091Z,1.02
2022-11-24T03:01:51.516Z,0.89
2022-11-24T03:04:17.976Z,1.02
2022-11-24T03:06:44.371Z,0.84
2022-11-24T03:09:10.918Z,0.73
2022-11-24T03:11:37.315Z,0.78
2022-11-24T03:14:03.712Z,0.84
2022-11-24T03:16:30.156Z,1.08
2022-11-24T03:18:56.590Z,0.88
2022-11-24T03:21:23.035Z,0.87
2022-11-24T03:23:49.456Z,0.77
2022-11-24T03:26:15.888Z,1.00
2022-11-24T03:28:42.326Z,0.82
2022-11-24T03:31:08.784Z,0.67
2022-11-24T03:33:35.257Z,0.86
2022-11-24T03:36:01.755Z,0.73
2022-11-24T03:38:28.159Z,0.77
2022-11-24T03:40:54.549Z,0.62
2022-11-24T03:43:20.978Z,0.63
2022-11-24T03:45:47.400Z,0.65
2022-11-24T03:48:13.797Z,0.69
2022-11-24T03:50:40.239Z,0.77
2022-11-24T03:53:06.662Z,0.79
2022-11-24T03:55:33.082Z,1.03
2022-11-24T03:57:59.480Z,0.97
2022-11-24T04:00:25.875Z,1.50
2022-11-24T04:02:52.325Z,1.35
2022-11-24T04:05:18.788Z,1.39
2022-11-24T04:07:45.409Z,3.29
2022-11-24T04:10:11.843Z,1.82
2022-11-24T04:12:38.244Z,3.73
2022-11-24T04:15:04.641Z,1.81
2022-11-24T04:17:31.058Z,1.60
2022-11-24T04:19:57.484Z,1.48
2022-11-24T04:22:23.914Z,1.28
2022-11-24T04:24:50.338Z,1.29
2022-11-24T04:27:16.745Z,1.32
2022-11-24T04:29:43.199Z,1.32
2022-11-24T04:32:09.615Z,1.15
2022-11-24T04:34:36.280Z,1.27
2022-11-24T04:37:02.795Z,1.19
2022-11-24T04:39:29.199Z,1.36
2022-11-24T04:41:55.780Z,1.33
2022-11-24T04:44:22.195Z,1.54
2022-11-24T04:46:48.676Z,1.33
2022-11-24T04:49:15.152Z,1.45
2022-11-24T04:51:41.603Z,1.50
2022-11-24T04:54:08.014Z,1.49
2022-11-24T04:56:34.425Z,1.39
2022-11-24T04:59:05.221Z,1.19
2022-11-24T05:01:34.624Z,1.22
2022-11-24T05:04:01.206Z,1.31
2022-11-24T05:06:27.677Z,1.28
2022-11-24T05:08:54.112Z,1.31
2022-11-24T05:11:20.530Z,1.15
2022-11-24T05:13:46.922Z,1.51
2022-11-24T05:16:13.377Z,1.25
2022-11-24T05:18:39.835Z,1.28
2022-11-24T05:21:06.291Z,1.07
2022-11-24T05:23:32.696Z,1.19
2022-11-24T05:25:59.127Z,1.19
2022-11-24T05:28:25.522Z,1.29
2022-11-24T05:30:51.969Z,1.19
2022-11-24T05:33:18.361Z,1.37
2022-11-24T05:35:44.799Z,1.27
2022-11-24T05:38:11.325Z,1.13
2022-11-24T05:40:37.717Z,1.13
2022-11-24T05:43:04.111Z,1.30
2022-11-24T05:45:30.570Z,1.36
2022-11-24T05:47:57.022Z,1.28
2022-11-24T05:50:23.461Z,1.21
2022-11-24T05:52:49.909Z,1.19
2022-11-24T05:55:16.313Z,1.01
2022-11-24T05:57:42.757Z,1.17
2022-11-24T06:00:09.176Z,1.34
2022-11-24T06:02:35.732Z,1.32
2022-11-24T06:05:02.208Z,1.16
2022-11-24T06:07:28.692Z,1.15
2022-11-24T06:09:55.160Z,1.04
2022-11-24T06:12:21.732Z,1.29
2022-11-24T06:14:48.142Z,1.47
2022-11-24T06:17:14.636Z,1.44
2022-11-24T06:19:42.293Z,1.43
2022-11-24T06:22:08.839Z,1.22
2022-11-24T06:24:35.525Z,1.33
2022-11-24T06:27:02.171Z,1.36
2022-11-24T06:29:28.656Z,1.42
2022-11-24T06:31:55.183Z,1.67
2022-11-24T06:34:21.687Z,1.46
2022-11-24T06:36:48.120Z,1.42
2022-11-24T06:39:14.546Z,1.52
2022-11-24T06:41:40.989Z,1.35
2022-11-24T06:44:07.404Z,1.43
2022-11-24T06:46:33.821Z,1.57
2022-11-24T06:49:00.532Z,1.47
2022-11-24T06:51:26.975Z,1.47
2022-11-24T06:53:53.445Z,1.44
2022-11-24T06:56:19.895Z,1.59
2022-11-24T06:58:46.315Z,1.55
2022-11-24T07:01:12.774Z,1.52
2022-11-24T07:03:39.278Z,1.60
2022-11-24T07:06:05.683Z,1.66
2022-11-24T07:08:32.128Z,1.60
2022-11-24T07:10:58.570Z,1.73
2022-11-24T07:13:25.024Z,1.69
2022-11-24T07:15:51.422Z,1.71
2022-11-24T07:18:19.076Z,1.60
2022-11-24T07:20:45.506Z,1.86
2022-11-24T07:23:12.044Z,1.33
2022-11-24T07:25:38.478Z,1.63
2022-11-24T07:28:04.973Z,1.65
2022-11-24T07:30:31.402Z,1.51
2022-11-24T07:32:57.823Z,1.31
2022-11-24T07:35:24.257Z,1.40
2022-11-24T07:37:50.665Z,1.48
2022-11-24T07:40:17.074Z,1.48
2022-11-24T07:42:43.538Z,1.46
2022-11-24T07:45:10.000Z,1.61
2022-11-24T07:47:36.460Z,1.57
2022-11-24T07:50:02.896Z,1.50
2022-11-24T07:52:29.324Z,1.38
2022-11-24T07:54:55.776Z,1.25
2022-11-24T07:57:22.216Z,1.84
2022-11-24T07:59:48.679Z,2.04
2022-11-24T08:02:15.119Z,1.80
2022-11-24T08:04:41.828Z,1.64
2022-11-24T08:07:08.426Z,2.83
2022-11-24T08:09:35.110Z,2.45
2022-11-24T08:12:02.596Z,3.15
2022-11-24T08:14:30.200Z,4.63
2022-11-24T08:16:56.692Z,13.27
2022-11-24T08:19:23.174Z,8.49
2022-11-24T08:21:49.967Z,21.46
2022-11-24T08:24:16.544Z,9.53
2022-11-24T08:26:43.140Z,4.29
2022-11-24T08:29:10.736Z,3.30
2022-11-24T08:31:37.439Z,2.57
2022-11-24T08:34:05.006Z,2.13
2022-11-24T08:36:32.557Z,2.18
2022-11-24T08:38:59.157Z,2.08
2022-11-24T08:41:25.805Z,2.10
2022-11-24T08:43:52.404Z,2.17
2022-11-24T08:46:18.950Z,1.98
2022-11-24T08:48:46.610Z,1.82
2022-11-24T08:51:13.199Z,2.15
2022-11-24T08:53:39.776Z,2.20
2022-11-24T08:56:06.385Z,1.86
2022-11-24T08:58:33.149Z,1.60
2022-11-24T09:01:01.607Z,1.59
2022-11-24T09:03:29.189Z,1.57
2022-11-24T09:05:56.807Z,1.80
2022-11-24T09:08:23.346Z,1.59
2022-11-24T09:10:49.973Z,1.51
2022-11-24T09:13:17.544Z,1.67
2022-11-24T09:15:45.136Z,1.72
2022-11-24T09:18:11.818Z,1.75
2022-11-24T09:20:38.443Z,1.43
2022-11-24T09:23:06.067Z,1.65
2022-11-24T09:25:32.671Z,1.33
2022-11-24T09:28:00.285Z,1.46
2022-11-24T09:30:26.895Z,1.50
2022-11-24T09:32:54.504Z,1.54
2022-11-24T09:35:21.083Z,1.49
2022-11-24T09:37:47.666Z,1.63
2022-11-24T09:40:15.275Z,1.37
2022-11-24T09:42:41.857Z,1.24
2022-11-24T09:45:08.268Z,1.44
2022-11-24T09:47:34.704Z,1.38
2022-11-24T09:50:01.162Z,1.31
2022-11-24T09:52:28.235Z,1.26
2022-11-24T09:54:54.646Z,1.19
2022-11-24T09:57:21.412Z,1.13
2022-11-24T09:59:48.256Z,1.24
2022-11-24T10:02:15.605Z,1.21
2022-11-24T10:04:42.289Z,1.44
2022-11-24T10:07:09.868Z,1.55
2022-11-24T10:09:37.489Z,1.28
2022-11-24T10:12:05.023Z,1.28
2022-11-24T10:14:31.599Z,1.32
2022-11-24T10:16:58.193Z,1.36
2022-11-24T10:19:36.273Z,1.44
2022-11-24T10:22:03.579Z,1.26
2022-11-24T10:24:30.052Z,1.41
2022-11-24T10:26:56.444Z,1.37
2022-11-24T10:29:22.820Z,1.53
2022-11-24T10:31:49.278Z,1.26
2022-11-24T10:34:15.694Z,1.30
2022-11-24T10:36:42.217Z,1.19
2022-11-24T10:39:08.786Z,1.14
2022-11-24T10:41:35.224Z,1.21
2022-11-24T10:44:01.628Z,1.20
2022-11-24T10:46:28.040Z,1.23
2022-11-24T10:48:54.496Z,1.18
2022-11-24T10:51:20.923Z,0.92
2022-11-24T10:53:47.358Z,0.75
2022-11-24T10:56:13.759Z,0.82
2022-11-24T10:58:40.190Z,0.82
2022-11-24T11:01:06.689Z,0.86
2022-11-24T11:03:33.200Z,0.97
2022-11-24T11:05:59.655Z,1.05
2022-11-24T11:08:26.159Z,1.18
2022-11-24T11:10:52.594Z,1.29
2022-11-24T11:13:19.022Z,1.41
2022-11-24T11:15:45.458Z,1.15
2022-11-24T11:18:12.059Z,1.35
2022-11-24T11:20:38.489Z,1.24
2022-11-24T11:23:05.017Z,1.23
2022-11-24T11:25:31.619Z,1.26
2022-11-24T11:27:58.048Z,1.23
2022-11-24T11:35:57.335Z,1.47
2022-11-24T11:38:23.792Z,1.40
2022-11-24T11:40:50.267Z,1.25
2022-11-24T11:43:16.743Z,1.39
2022-11-24T11:45:43.251Z,1.37
2022-11-24T11:48:09.682Z,1.61
2022-11-24T11:50:42.916Z,1.59
2022-11-24T11:53:13.963Z,1.63
2022-11-24T11:55:43.962Z,1.49
2022-11-24T11:58:13.101Z,1.39
2022-11-24T12:00:39.513Z,1.32
2022-11-24T12:03:06.050Z,1.34
2022-11-24T12:05:32.578Z,1.21
2022-11-24T12:08:01.327Z,1.29
2022-11-24T12:10:31.469Z,1.40
2022-11-24T12:12:57.890Z,1.48
2022-11-24T12:15:24.319Z,1.30
2022-11-24T12:17:50.753Z,1.36
2022-11-24T12:20:17.226Z,1.38
2022-11-24T12:22:43.634Z,1.25
2022-11-24T12:25:10.083Z,1.29
2022-11-24T12:27:39.355Z,1.49
2022-11-24T12:30:05.797Z,1.69
2022-11-24T12:32:32.228Z,1.49
2022-11-24T12:34:58.743Z,1.45
2022-11-24T12:37:25.160Z,1.47
2022-11-24T12:39:51.585Z,1.44
2022-11-24T12:42:18.036Z,1.33
2022-11-24T12:44:44.482Z,1.55
2022-11-24T12:47:11.056Z,1.36
2022-11-24T12:49:37.804Z,1.60
2022-11-24T12:52:04.413Z,1.24
2022-11-24T12:54:30.851Z,1.36
2022-11-24T12:56:57.288Z,1.33
2022-11-24T12:59:23.714Z,1.40
2022-11-24T13:01:50.218Z,1.15
2022-11-24T13:04:16.693Z,1.45
2022-11-24T13:06:48.812Z,1.38
2022-11-24T13:09:15.968Z,1.25
2022-11-24T13:11:42.394Z,1.33
2022-11-24T13:14:08.810Z,1.33
2022-11-24T13:16:37.162Z,1.27
2022-11-24T13:19:10.830Z,1.14
2022-11-24T13:21:37.315Z,1.22
2022-11-24T13:24:03.747Z,1.14
2022-11-24T13:26:30.180Z,1.29
2022-11-24T13:29:03.594Z,1.09
2022-11-24T13:31:39.739Z,1.28
2022-11-24T13:34:06.198Z,1.26
2022-11-24T13:36:32.658Z,1.14
2022-11-24T13:38:59.081Z,1.28
2022-11-24T13:41:28.848Z,1.05
2022-11-24T13:43:55.369Z,1.07
2022-11-24T13:46:21.849Z,1.19
2022-11-24T13:48:48.322Z,1.11
2022-11-24T13:51:14.729Z,1.18
2022-11-24T13:53:41.219Z,1.11
2022-11-24T13:56:07.597Z,1.06
2022-11-24T13:58:34.051Z,1.05
2022-11-24T14:01:00.588Z,1.28
2022-11-24T14:03:27.696Z,1.35
2022-11-24T14:05:54.240Z,3.66
2022-11-24T14:08:20.640Z,3.58
2022-11-24T14:10:47.055Z,2.91
2022-11-24T14:13:13.450Z,2.13
2022-11-24T14:15:40.080Z,1.68
2022-11-24T14:18:06.592Z,1.55
2022-11-24T14:20:32.984Z,1.34
2022-11-24T14:22:59.424Z,1.12
2022-11-24T14:25:26.903Z,1.03
2022-11-24T14:27:53.576Z,1.15
2022-11-24T14:30:21.144Z,1.42
2022-11-24T14:32:47.598Z,1.09
2022-11-24T14:35:14.112Z,1.18
2022-11-24T14:37:40.592Z,2.87
2022-11-24T14:40:07.124Z,4.24
2022-11-24T14:42:33.577Z,2.67
2022-11-24T14:45:00.045Z,2.08
2022-11-24T14:47:30.841Z,1.70
2022-11-24T14:49:59.023Z,1.53
2022-11-24T14:52:26.552Z,1.61
2022-11-24T14:54:53.166Z,2.10
2022-11-24T14:57:19.562Z,2.74
2022-11-24T14:59:45.970Z,2.59
2022-11-24T15:02:12.381Z,2.30
2022-11-24T15:05:01.688Z,4.37
2022-11-24T15:07:25.205Z,4.82
2022-11-24T15:09:51.654Z,3.29
2022-11-24T15:12:18.090Z,2.91
2022-11-24T15:14:44.489Z,2.02
2022-11-24T15:17:10.942Z,1.44
2022-11-24T15:19:39.145Z,1.28
2022-11-24T15:22:06.779Z,1.21
2022-11-24T15:24:33.456Z,1.09
2022-11-24T15:27:00.111Z,1.17
2022-11-24T15:29:26.529Z,1.17
2022-11-24T15:31:53.267Z,0.99
2022-11-24T15:34:19.813Z,2.44
2022-11-24T15:36:46.252Z,3.74
2022-11-24T15:39:12.675Z,3.83
2022-11-24T15:41:39.132Z,3.09
2022-11-24T15:44:05.554Z,3.27
2022-11-24T15:46:32.026Z,3.33
2022-11-24T15:48:58.522Z,3.87
2022-11-24T15:51:24.955Z,3.39
2022-11-24T15:53:54.107Z,2.27
2022-11-24T15:56:23.553Z,1.68
2022-11-24T15:58:49.968Z,2.46
2022-11-24T16:01:16.580Z,2.10
2022-11-24T16:03:47.759Z,1.50
2022-11-24T16:06:19.115Z,2.14
2022-11-24T16:08:50.039Z,2.10
2022-11-24T16:11:16.445Z,1.72
2022-11-24T16:13:45.647Z,3.45
2022-11-24T16:16:16.749Z,2.38
2022-11-24T16:18:43.200Z,2.29
2022-11-24T16:21:09.642Z,1.12
2022-11-24T16:23:36.031Z,1.20
2022-11-24T16:26:02.463Z,1.29
2022-11-24T16:28:28.903Z,1.08
2022-11-24T16:30:55.312Z,1.59
2022-11-24T16:33:21.726Z,2.43
2022-11-24T16:35:48.166Z,2.20
2022-11-24T16:38:14.593Z,10.33
2022-11-24T16:40:41.025Z,3.64
2022-11-24T16:43:07.434Z,2.45
2022-11-24T16:45:33.912Z,2.02
2022-11-24T16:48:00.382Z,1.12
2022-11-24T16:50:26.783Z,2.12
2022-11-24T16:52:53.214Z,2.27
2022-11-24T16:55:19.612Z,1.28
2022-11-24T16:57:46.027Z,1.63
2022-11-24T17:00:12.427Z,1.17
2022-11-24T17:02:38.926Z,1.00
2022-11-24T17:05:05.388Z,0.92
2022-11-24T17:07:31.873Z,1.16
2022-11-24T17:09:58.346Z,1.22
2022-11-24T17:12:24.745Z,1.59
2022-11-24T17:15:16.516Z,2.10
2022-11-24T17:17:37.657Z,2.18
2022-11-24T17:20:04.109Z,1.87
2022-11-24T17:22:30.553Z,2.52
2022-11-24T17:24:57.003Z,3.94
2022-11-24T17:27:23.477Z,2.36
2022-11-24T17:29:49.921Z,2.65
2022-11-24T17:32:16.366Z,3.13
2022-11-24T17:34:42.838Z,2.02
2022-11-24T17:37:09.274Z,2.27
2022-11-24T17:39:35.682Z,3.32
2022-11-24T17:42:02.117Z,3.93
2022-11-24T17:44:28.517Z,3.35
2022-11-24T17:46:54.905Z,2.12
2022-11-24T17:49:21.299Z,1.88
2022-11-24T17:51:47.724Z,2.82
2022-11-24T17:57:00.514Z,3.73
2022-11-24T17:59:26.919Z,3.74
2022-11-24T18:01:53.358Z,9.32
2022-11-24T18:04:19.820Z,8.87
2022-11-24T18:06:46.239Z,5.23
2022-11-24T18:09:12.642Z,4.48
2022-11-24T18:11:39.066Z,3.98
2022-11-24T18:14:05.516Z,3.29
2022-11-24T18:16:31.997Z,2.66
2022-11-24T18:19:07.843Z,2.73
2022-11-24T18:21:35.111Z,2.63
2022-11-24T18:24:01.526Z,2.70
2022-11-24T18:26:27.946Z,2.51
2022-11-24T18:28:54.858Z,2.33
2022-11-24T18:31:21.353Z,2.34
2022-11-24T18:33:47.799Z,2.29
2022-11-24T18:36:14.218Z,2.94
2022-11-24T18:38:40.698Z,3.15
2022-11-24T18:41:07.157Z,3.42
2022-11-24T18:43:33.610Z,3.58
2022-11-24T18:46:00.144Z,3.14
2022-11-24T18:48:26.658Z,2.59
2022-11-24T18:50:53.067Z,2.81
2022-11-24T18:53:19.458Z,2.47
2022-11-24T18:55:45.915Z,2.14
2022-11-24T18:58:12.369Z,2.00
2022-11-24T19:00:38.775Z,2.33
2022-11-24T19:03:05.181Z,2.23
2022-11-24T19:05:31.619Z,2.43
2022-11-24T19:07:58.089Z,2.19
2022-11-24T19:10:24.549Z,1.60
2022-11-24T19:12:50.955Z,3.03
2022-11-24T19:15:17.368Z,2.49
2022-11-24T19:17:47.159Z,2.65
2022-11-24T19:20:13.855Z,2.65
2022-11-24T19:22:40.271Z,2.52
2022-11-24T19:25:06.682Z,2.53
2022-11-24T19:27:33.095Z,2.45
2022-11-24T19:29:59.530Z,2.43
2022-11-24T19:32:25.938Z,5.78
2022-11-24T19:34:52.339Z,4.36
2022-11-24T19:37:18.739Z,4.06
2022-11-24T19:39:45.155Z,3.87
2022-11-24T19:42:11.572Z,3.30
2022-11-24T19:44:37.990Z,2.21
2022-11-24T19:47:04.437Z,2.41
2022-11-24T19:49:30.850Z,3.03
2022-11-24T19:51:57.233Z,2.94
2022-11-24T19:54:23.668Z,2.53
2022-11-24T19:56:50.105Z,2.60
2022-11-24T19:59:16.499Z,3.03
2022-11-24T20:01:43.023Z,4.05
2022-11-24T20:04:09.541Z,4.33
2022-11-24T20:06:35.935Z,3.68
2022-11-24T20:09:02.350Z,3.41
2022-11-24T20:11:28.784Z,3.41
2022-11-24T20:13:55.363Z,3.63
2022-11-24T20:16:21.930Z,3.70
2022-11-24T20:18:48.366Z,3.52
2022-11-24T20:21:14.776Z,2.91
2022-11-24T20:23:41.212Z,2.46
2022-11-24T20:26:07.633Z,2.42
2022-11-24T20:28:34.075Z,2.48
2022-11-24T20:31:00.475Z,2.11
2022-11-24T20:33:26.884Z,1.88
2022-11-24T20:35:53.277Z,1.80
2022-11-24T20:38:19.691Z,1.95
2022-11-24T20:40:46.114Z,1.93
2022-11-24T20:43:12.556Z,2.32
2022-11-24T20:45:39.037Z,2.31
2022-11-24T20:48:05.480Z,2.75
2022-11-24T20:50:31.921Z,2.53
2022-11-24T20:52:58.342Z,2.47
2022-11-24T20:55:24.777Z,2.48
2022-11-24T20:57:51.229Z,3.02
2022-11-24T21:00:17.621Z,6.75
2022-11-24T21:02:44.055Z,5.48
2022-11-24T21:05:10.484Z,2.66
2022-11-24T21:07:36.919Z,2.34
2022-11-24T21:10:03.327Z,2.35
2022-11-24T21:12:29.707Z,7.17
2022-11-24T21:14:56.137Z,3.76
2022-11-24T21:17:22.550Z,2.28
2022-11-24T21:19:48.968Z,2.52
2022-11-24T21:22:15.387Z,1.72
2022-11-24T21:24:41.807Z,1.85
2022-11-24T21:27:08.288Z,2.24
2022-11-24T21:29:34.717Z,2.41
2022-11-24T21:32:01.227Z,2.71
2022-11-24T21:34:27.674Z,5.31
2022-11-24T21:36:54.077Z,3.92
2022-11-24T21:39:20.528Z,3.64
2022-11-24T21:41:46.978Z,3.00
2022-11-24T21:44:13.569Z,2.48
2022-11-24T21:46:45.099Z,2.31
2022-11-24T21:49:14.402Z,2.71
2022-11-24T21:51:40.812Z,2.85
2022-11-24T21:54:07.255Z,2.58
2022-11-24T21:56:33.682Z,2.75
2022-11-24T21:59:00.096Z,2.48
2022-11-24T22:01:26.583Z,3.17
2022-11-24T22:03:53.019Z,3.13
2022-11-24T22:06:19.414Z,3.23
2022-11-24T22:08:45.812Z,3.12
2022-11-24T22:11:12.188Z,4.20
2022-11-24T22:13:38.559Z,4.74
2022-11-24T22:16:04.974Z,4.69
2022-11-24T22:18:31.378Z,5.20
2022-11-24T22:20:57.758Z,6.41
2022-11-24T22:23:24.162Z,8.03
2022-11-24T22:25:50.551Z,7.36
2022-11-24T22:28:16.958Z,7.01
2022-11-24T22:30:43.368Z,6.44
2022-11-24T22:33:09.738Z,7.36
2022-11-24T22:35:36.103Z,7.36
2022-11-24T22:38:02.527Z,7.21
2022-11-24T22:40:28.931Z,7.69
2022-11-24T22:42:55.356Z,7.37
2022-11-24T22:45:21.778Z,7.36
2022-11-24T22:47:48.166Z,6.61
2022-11-24T22:50:14.594Z,3.81
2022-11-24T22:52:40.988Z,2.18
2022-11-24T22:55:07.422Z,1.78
2022-11-24T22:57:33.831Z,1.94
2022-11-24T23:00:00.208Z,2.29
2022-11-24T23:02:26.622Z,2.19
2022-11-24T23:04:53.043Z,2.16
2022-11-24T23:07:19.468Z,2.12
2022-11-24T23:09:45.909Z,2.58
2022-11-24T23:12:12.300Z,2.67
2022-11-24T23:14:38.729Z,2.97
2022-11-24T23:17:05.158Z,3.23
2022-11-24T23:19:31.543Z,3.00
2022-11-24T23:21:57.935Z,2.87
2022-11-24T23:24:24.342Z,3.38
2022-11-24T23:26:50.750Z,3.25
2022-11-24T23:29:17.171Z,3.02
2022-11-24T23:31:43.603Z,3.06
2022-11-24T23:34:10.038Z,2.44
2022-11-24T23:36:36.439Z,2.38
2022-11-24T23:39:02.849Z,2.44
2022-11-24T23:41:29.268Z,2.34
2022-11-24T23:43:55.713Z,3.06
2022-11-24T23:46:22.164Z,3.15
2022-11-24T23:48:48.584Z,2.93
2022-11-24T23:51:15.002Z,1.74
2022-11-24T23:53:41.501Z,1.86
2022-11-24T23:56:07.913Z,1.80
2022-11-24T23:58:34.322Z,1.55
